createdAt,value
2023-02-04T00:00:26.553Z,98216.22
2023-02-04T00:02:56.935Z,98225.59
2023-02-04T00:05:27.313Z,98222.47
2023-02-04T00:08:00.222Z,98219.31
2023-02-04T00:10:30.899Z,98227.63
2023-02-04T00:13:01.461Z,98218.97
2023-02-04T00:15:31.853Z,98240.44
2023-02-04T00:18:03.370Z,98235.44
2023-02-04T00:20:33.648Z,98242.13
2023-02-04T00:23:06.620Z,98243.19
2023-02-04T00:25:36.952Z,98235.88
2023-02-04T00:28:07.914Z,98240.44
2023-02-04T00:30:38.334Z,98220.88
2023-02-04T00:33:08.711Z,98258.44
2023-02-04T00:35:40.178Z,98288.97
2023-02-04T00:38:12.864Z,98323.81
2023-02-04T00:40:44.147Z,98340.91
2023-02-04T00:43:14.471Z,98349.59
2023-02-04T00:45:45.568Z,98368.19
2023-02-04T00:48:15.776Z,98371.81
2023-02-04T00:50:46.120Z,98378.97
2023-02-04T00:53:19.022Z,98399.97
2023-02-04T00:55:49.332Z,98407.09
2023-02-04T00:58:19.646Z,98411.59
2023-02-04T01:00:49.971Z,98439.88
2023-02-04T01:03:20.303Z,98444.66
2023-02-04T01:05:50.624Z,98451.00
2023-02-04T01:08:23.652Z,98455.38
2023-02-04T01:10:54.017Z,98472.59
2023-02-04T01:13:24.490Z,98478.88
2023-02-04T01:15:54.839Z,98483.19
2023-02-04T01:18:25.536Z,98481.16
2023-02-04T01:20:55.886Z,98480.91
2023-02-04T01:23:28.757Z,98486.38
2023-02-04T01:25:59.058Z,98498.91
2023-02-04T01:28:29.709Z,98507.13
2023-02-04T01:31:02.084Z,98516.13
2023-02-04T01:33:32.819Z,98522.38
2023-02-04T01:36:03.216Z,98533.31
2023-02-04T01:38:36.066Z,98542.75
2023-02-04T01:41:07.737Z,98553.25
2023-02-04T01:43:38.058Z,98559.88
2023-02-04T01:46:09.400Z,98573.22
2023-02-04T01:48:39.798Z,98586.50
2023-02-04T01:51:14.882Z,98591.97
2023-02-04T01:53:47.882Z,98593.59
2023-02-04T01:56:21.847Z,98604.59
2023-02-04T01:58:53.270Z,98602.63
2023-02-04T02:01:41.962Z,98612.06
2023-02-04T02:04:13.893Z,98623.75
2023-02-04T02:06:51.313Z,98626.19
2023-02-04T02:09:24.578Z,98633.66
2023-02-04T02:11:55.033Z,98625.44
2023-02-04T02:14:25.752Z,98631.75
2023-02-04T02:16:56.505Z,98650.25
2023-02-04T02:19:32.568Z,98662.78
2023-02-04T02:22:14.263Z,98654.22
2023-02-04T02:24:47.266Z,98671.06
2023-02-04T02:27:17.711Z,98673.81
2023-02-04T02:29:48.360Z,98683.63
2023-02-04T02:32:18.949Z,98689.84
2023-02-04T02:34:50.216Z,98698.47
2023-02-04T02:37:20.263Z,98704.41
2023-02-04T02:39:53.514Z,98702.84
2023-02-04T02:42:24.138Z,98709.09
2023-02-04T02:44:55.068Z,98705.19
2023-02-04T02:47:28.476Z,98712.28
2023-02-04T02:49:58.941Z,98719.38
2023-02-04T02:52:29.389Z,98726.03
2023-02-04T02:55:02.384Z,98728.38
2023-02-04T02:57:32.895Z,98736.19
2023-02-04T03:00:04.263Z,98737.41
2023-02-04T03:02:34.309Z,98745.19
2023-02-04T03:05:04.767Z,98758.94
2023-02-04T03:07:36.213Z,98765.22
2023-02-04T03:10:09.777Z,98769.91
2023-02-04T03:12:42.352Z,98776.56
2023-02-04T03:15:13.603Z,98782.38
2023-02-04T03:17:44.394Z,98792.16
2023-02-04T03:20:17.288Z,98805.84
2023-02-04T03:22:47.680Z,98810.50
2023-02-04T03:25:24.876Z,98814.41
2023-02-04T03:27:55.859Z,98822.59
2023-02-04T03:30:28.161Z,98835.91
2023-02-04T03:32:58.524Z,98844.13
2023-02-04T03:35:29.008Z,98842.19
2023-02-04T03:37:59.440Z,98846.13
2023-02-04T03:40:33.068Z,98867.66
2023-02-04T03:43:03.643Z,98870.78
2023-02-04T03:45:44.638Z,98872.75
2023-02-04T03:48:15.523Z,98880.56
2023-02-04T03:50:46.063Z,98888.38
2023-02-04T03:53:16.483Z,98879.81
2023-02-04T03:55:49.430Z,98892.31
2023-02-04T03:58:20.056Z,98901.72
2023-02-04T04:00:50.607Z,98900.56
2023-02-04T04:03:20.991Z,98912.66
2023-02-04T04:05:51.359Z,98916.97
2023-02-04T04:08:21.674Z,98920.47
2023-02-04T04:10:54.578Z,98923.22
2023-02-04T04:13:24.854Z,98930.66
2023-02-04T04:15:55.193Z,98927.53
2023-02-04T04:18:25.531Z,98951.03
2023-02-04T04:20:55.854Z,98963.13
2023-02-04T04:23:26.232Z,98985.44
2023-02-04T04:25:59.147Z,98991.72
2023-02-04T04:28:29.460Z,98999.91
2023-02-04T04:31:00.034Z,99003.03
2023-02-04T04:33:30.421Z,99000.28
2023-02-04T04:36:00.745Z,99010.44
2023-02-04T04:38:31.059Z,99015.13
2023-02-04T04:41:03.964Z,99016.69
2023-02-04T04:43:34.225Z,99033.13
2023-02-04T04:46:04.524Z,99046.81
2023-02-04T04:48:34.876Z,99052.69
2023-02-04T04:51:05.216Z,99052.69
2023-02-04T04:53:35.495Z,99062.09
2023-02-04T04:56:09.172Z,99066.00
2023-02-04T04:58:39.476Z,99067.16
2023-02-04T05:01:09.850Z,99067.16
2023-02-04T05:03:40.181Z,99064.41
2023-02-04T05:06:11.128Z,99074.19
2023-02-04T05:08:41.518Z,99080.84
2023-02-04T05:11:14.460Z,99103.94
2023-02-04T05:13:44.753Z,99099.63
2023-02-04T05:16:16.147Z,99099.63
2023-02-04T05:18:46.575Z,99109.41
2023-02-04T05:21:16.906Z,99120.72
2023-02-04T05:23:47.238Z,99114.09
2023-02-04T05:26:29.920Z,99121.53
2023-02-04T05:29:02.936Z,99128.94
2023-02-04T05:31:33.293Z,99135.22
2023-02-04T05:34:03.702Z,99139.09
2023-02-04T05:36:34.057Z,99142.25
2023-02-04T05:39:04.514Z,99147.72
2023-02-04T05:41:37.502Z,99149.28
2023-02-04T05:44:08.336Z,99154.75
2023-02-04T05:46:39.398Z,99159.47
2023-02-04T05:49:10.616Z,99159.06
2023-02-04T05:51:40.987Z,99164.50
2023-02-04T05:54:11.503Z,99167.63
2023-02-04T05:56:44.492Z,99177.03
2023-02-04T05:59:14.797Z,99179.78
2023-02-04T06:01:45.142Z,99174.31
2023-02-04T06:04:18.511Z,99189.53
2023-02-04T06:06:49.028Z,99192.69
2023-02-04T06:09:19.349Z,99216.16
2023-02-04T06:11:52.177Z,99214.56
2023-02-04T06:14:22.445Z,99221.59
2023-02-04T06:16:52.718Z,99238.00
2023-02-04T06:19:23.130Z,99235.28
2023-02-04T06:21:53.405Z,99235.66
2023-02-04T06:24:23.771Z,99241.13
2023-02-04T06:26:56.758Z,99248.16
2023-02-04T06:29:27.245Z,99250.13
2023-02-04T06:31:57.742Z,99259.13
2023-02-04T06:34:28.500Z,99258.72
2023-02-04T06:36:58.921Z,99266.09
2023-02-04T06:39:29.423Z,99276.25
2023-02-04T06:42:02.510Z,99279.00
2023-02-04T06:44:32.928Z,99284.09
2023-02-04T06:47:03.314Z,99286.41
2023-02-04T06:49:33.645Z,99298.88
2023-02-04T06:52:03.992Z,99303.56
2023-02-04T06:54:34.304Z,99302.78
2023-02-04T06:57:09.382Z,99308.25
2023-02-04T06:59:43.259Z,99316.88
2023-02-04T07:02:15.558Z,99323.88
2023-02-04T07:04:47.742Z,99317.63
2023-02-04T07:07:18.482Z,99330.94
2023-02-04T07:09:48.927Z,99316.88
2023-02-04T07:12:22.221Z,99336.03
2023-02-04T07:14:52.652Z,99334.09
2023-02-04T07:17:22.923Z,99330.97
2023-02-04T07:19:53.252Z,99319.66
2023-02-04T07:22:23.514Z,99329.41
2023-02-04T07:24:53.878Z,99321.19
2023-02-04T07:27:26.858Z,99329.03
2023-02-04T07:29:57.218Z,99332.19
2023-02-04T07:32:27.976Z,99333.38
2023-02-04T07:34:58.351Z,99334.22
2023-02-04T07:37:28.729Z,99335.00
2023-02-04T07:39:59.062Z,99349.06
2023-02-04T07:42:31.961Z,99341.28
2023-02-04T07:45:11.612Z,99356.16
2023-02-04T07:47:41.946Z,99364.38
2023-02-04T07:50:13.175Z,99367.94
2023-02-04T07:52:43.257Z,99373.41
2023-02-04T07:55:13.624Z,99375.78
2023-02-04T07:57:46.527Z,99385.19
2023-02-04T08:00:18.871Z,99390.66
2023-02-04T08:02:49.292Z,99393.00
2023-02-04T08:05:19.901Z,99404.78
2023-02-04T08:07:50.308Z,99403.16
2023-02-04T08:10:21.602Z,99409.41
2023-02-04T08:12:54.905Z,99416.06
2023-02-04T08:15:25.451Z,99413.75
2023-02-04T08:17:55.831Z,99420.78
2023-02-04T08:20:26.556Z,99440.75
2023-02-04T08:22:57.482Z,99448.59
2023-02-04T08:25:29.465Z,99451.69
2023-02-04T08:28:02.647Z,99462.59
2023-02-04T08:30:33.332Z,99463.44
2023-02-04T08:33:06.375Z,99466.22
2023-02-04T08:35:36.702Z,99467.75
2023-02-04T08:38:07.020Z,99461.06
2023-02-04T08:40:37.577Z,99469.28
2023-02-04T08:43:10.531Z,99473.25
2023-02-04T08:45:41.248Z,99477.22
2023-02-04T08:48:11.665Z,99480.06
2023-02-04T08:50:41.995Z,99485.97
2023-02-04T08:53:12.399Z,99488.31
2023-02-04T08:55:42.769Z,99494.53
2023-02-04T08:58:15.650Z,99505.91
2023-02-04T09:00:46.201Z,99504.34
2023-02-04T09:03:16.620Z,99515.75
2023-02-04T09:05:47.715Z,99515.38
2023-02-04T09:08:18.613Z,99511.88
2023-02-04T09:10:49.097Z,99516.97
2023-02-04T09:13:22.145Z,99523.31
2023-02-04T09:15:54.221Z,99530.38
2023-02-04T09:18:25.953Z,99535.88
2023-02-04T09:20:56.591Z,99531.53
2023-02-04T09:23:27.062Z,99543.69
2023-02-04T09:25:57.402Z,99549.16
2023-02-04T09:28:30.564Z,99550.41
2023-02-04T09:31:02.565Z,99548.09
2023-02-04T09:33:34.145Z,99553.59
2023-02-04T09:36:04.596Z,99556.31
2023-02-04T09:38:35.283Z,99563.28
2023-02-04T09:41:10.497Z,99569.94
2023-02-04T09:43:46.440Z,99571.81
2023-02-04T09:46:24.439Z,99582.44
2023-02-04T09:48:55.477Z,99592.66
2023-02-04T09:51:29.805Z,99593.84
2023-02-04T09:54:09.911Z,99598.59
2023-02-04T09:56:40.377Z,99599.81
2023-02-04T09:59:18.513Z,99600.25
2023-02-04T10:01:50.823Z,99600.25
2023-02-04T10:04:21.766Z,99601.50
2023-02-04T10:06:52.462Z,99602.97
2023-02-04T10:09:22.882Z,99602.50
2023-02-04T10:11:53.538Z,99597.41
2023-02-04T10:14:26.870Z,99599.34
2023-02-04T10:17:00.813Z,99599.28
2023-02-04T10:19:33.990Z,99592.94
2023-02-04T10:22:06.379Z,99599.72
2023-02-04T10:24:37.544Z,99598.50
2023-02-04T10:27:11.920Z,99601.06
2023-02-04T10:29:45.487Z,99603.47
2023-02-04T10:32:34.990Z,99594.06
2023-02-04T10:35:06.577Z,99593.50
2023-02-04T10:37:37.074Z,99595.44
2023-02-04T10:40:28.846Z,99597.69
2023-02-04T10:42:59.898Z,99593.53
2023-02-04T10:45:33.501Z,99595.09
2023-02-04T10:48:03.887Z,99602.97
2023-02-04T10:50:34.526Z,99606.56
2023-02-04T10:53:17.614Z,99605.78
2023-02-04T10:55:49.755Z,99605.00
2023-02-04T10:58:25.430Z,99604.19
2023-02-04T11:00:58.540Z,99609.03
2023-02-04T11:03:31.150Z,99609.41
2023-02-04T11:06:03.807Z,99607.97
2023-02-04T11:08:38.230Z,99606.94
2023-02-04T11:11:11.346Z,99595.94
2023-02-04T11:13:47.271Z,99604.06
2023-02-04T11:16:30.558Z,99606.97
2023-02-04T11:19:03.683Z,99608.53
2023-02-04T11:21:49.113Z,99616.53
2023-02-04T11:24:29.328Z,99616.94
2023-02-04T11:27:20.778Z,99621.19
2023-02-04T11:29:51.404Z,99622.91
2023-02-04T11:32:38.174Z,99630.16
2023-02-04T11:35:27.672Z,99621.25
2023-02-04T11:37:58.692Z,99619.03
2023-02-04T11:40:32.056Z,99629.69
2023-02-04T11:43:06.290Z,99633.22
2023-02-04T11:45:39.140Z,99633.50
2023-02-04T11:48:19.294Z,99635.94
2023-02-04T11:50:58.918Z,99639.59
2023-02-04T11:53:36.821Z,99644.78
2023-02-04T11:56:07.932Z,99641.72
2023-02-04T11:58:43.613Z,99636.22
2023-02-04T12:01:21.478Z,99635.00
2023-02-04T12:04:00.949Z,99634.66
2023-02-04T12:06:34.290Z,99638.81
2023-02-04T12:09:17.332Z,99639.94
2023-02-04T12:11:56.095Z,99630.31
2023-02-04T12:14:33.066Z,99634.59
2023-02-04T12:17:03.873Z,99633.31
2023-02-04T12:19:36.844Z,99639.13
2023-02-04T12:22:07.224Z,99637.69
2023-02-04T12:24:37.620Z,99637.91
2023-02-04T12:27:08.050Z,99636.69
2023-02-04T12:29:38.486Z,99646.28
2023-02-04T12:32:08.962Z,99647.56
2023-02-04T12:34:42.044Z,99645.00
2023-02-04T12:37:12.489Z,99650.88
2023-02-04T12:39:42.857Z,99660.38
2023-02-04T12:42:13.214Z,99658.84
2023-02-04T12:44:43.615Z,99653.16
2023-02-04T12:47:14.030Z,99650.25
2023-02-04T12:49:47.383Z,99644.78
2023-02-04T12:52:17.813Z,99653.16
2023-02-04T12:54:48.232Z,99649.16
2023-02-04T12:57:20.049Z,99644.91
2023-02-04T12:59:51.928Z,99650.94
2023-02-04T13:02:22.364Z,99647.97
2023-02-04T13:04:56.056Z,99650.31
2023-02-04T13:07:26.835Z,99643.28
2023-02-04T13:09:57.514Z,99648.88
2023-02-04T13:12:27.965Z,99660.72
2023-02-04T13:14:58.301Z,99652.53
2023-02-04T13:17:28.936Z,99662.22
2023-02-04T13:20:01.920Z,99661.50
2023-02-04T13:22:32.477Z,99663.66
2023-02-04T13:25:04.194Z,99661.28
2023-02-04T13:27:34.639Z,99663.06
2023-02-04T13:30:04.922Z,99665.91
2023-02-04T13:32:35.429Z,99662.88
2023-02-04T13:35:09.418Z,99668.53
2023-02-04T13:37:40.465Z,99671.00
2023-02-04T13:40:13.990Z,99674.53
2023-02-04T13:42:44.309Z,99672.53
2023-02-04T13:45:16.373Z,99672.75
2023-02-04T13:47:48.096Z,99673.81
2023-02-04T13:50:21.674Z,99673.06
2023-02-04T13:52:52.045Z,99666.41
2023-02-04T13:55:22.441Z,99666.56
2023-02-04T13:57:56.890Z,99666.44
2023-02-04T14:00:27.705Z,99674.50
2023-02-04T14:02:58.438Z,99669.28
2023-02-04T14:05:31.463Z,99669.69
2023-02-04T14:08:06.464Z,99675.06
2023-02-04T14:10:38.618Z,99673.38
2023-02-04T14:13:09.184Z,99673.91
2023-02-04T14:15:41.681Z,99672.06
2023-02-04T14:18:12.713Z,99673.50
2023-02-04T14:20:46.113Z,99679.13
2023-02-04T14:23:16.749Z,99681.22
2023-02-04T14:25:47.193Z,99687.22
2023-02-04T14:28:17.655Z,99685.91
2023-02-04T14:30:48.253Z,99683.75
2023-02-04T14:33:18.758Z,99689.72
2023-02-04T14:35:52.256Z,99683.50
2023-02-04T14:38:22.545Z,99683.53
2023-02-04T14:40:52.871Z,99686.28
2023-02-04T14:43:23.189Z,99683.53
2023-02-04T14:45:53.529Z,99681.19
2023-02-04T14:48:23.903Z,99685.91
2023-02-04T14:50:56.859Z,99679.66
2023-02-04T14:53:27.333Z,99690.63
2023-02-04T14:55:57.752Z,99684.72
2023-02-04T14:58:28.195Z,99683.97
2023-02-04T15:00:59.375Z,99684.72
2023-02-04T15:03:29.576Z,99682.38
2023-02-04T15:06:02.845Z,99692.97
2023-02-04T15:08:33.550Z,99681.97
2023-02-04T15:11:04.220Z,99689.06
2023-02-04T15:13:34.560Z,99689.84
2023-02-04T15:16:05.550Z,99693.38
2023-02-04T15:18:36.205Z,99685.09
2023-02-04T15:21:09.248Z,99686.69
2023-02-04T15:23:39.749Z,99688.22
2023-02-04T15:26:10.166Z,99683.09
2023-02-04T15:28:40.646Z,99692.88
2023-02-04T15:31:12.429Z,99692.44
2023-02-04T15:33:43.525Z,99689.66
2023-02-04T15:36:16.659Z,99691.94
2023-02-04T15:38:48.046Z,99696.25
2023-02-04T15:41:18.181Z,99693.91
2023-02-04T15:43:49.013Z,99699.34
2023-02-04T15:46:19.392Z,99698.16
2023-02-04T15:48:49.978Z,99702.84
2023-02-04T15:51:22.994Z,99706.75
2023-02-04T15:53:53.322Z,99707.50
2023-02-04T15:56:23.934Z,99712.19
2023-02-04T15:58:54.913Z,99711.75
2023-02-04T16:01:25.289Z,99715.25
2023-02-04T16:03:56.683Z,99724.59
2023-02-04T16:06:29.399Z,99724.16
2023-02-04T16:08:59.780Z,99728.47
2023-02-04T16:11:30.168Z,99726.88
2023-02-04T16:14:00.630Z,99734.69
2023-02-04T16:16:33.517Z,99734.66
2023-02-04T16:19:04.497Z,99728.34
2023-02-04T16:21:37.521Z,99739.25
2023-02-04T16:24:09.237Z,99740.44
2023-02-04T16:26:39.509Z,99747.03
2023-02-04T16:29:09.956Z,99743.91
2023-02-04T16:31:40.387Z,99749.03
2023-02-04T16:34:10.784Z,99752.94
2023-02-04T16:36:43.893Z,99750.25
2023-02-04T16:39:14.312Z,99756.16
2023-02-04T16:41:44.771Z,99751.84
2023-02-04T16:44:15.264Z,99753.00
2023-02-04T16:46:45.787Z,99749.09
2023-02-04T16:49:16.347Z,99756.53
2023-02-04T16:51:49.418Z,99752.94
2023-02-04T16:54:19.766Z,99758.09
2023-02-04T16:56:50.295Z,99754.56
2023-02-04T16:59:20.662Z,99754.19
2023-02-04T17:01:51.308Z,99763.19
2023-02-04T17:04:21.973Z,99771.41
2023-02-04T17:06:55.362Z,99767.84
2023-02-04T17:09:25.674Z,99772.88
2023-02-04T17:11:56.150Z,99777.94
2023-02-04T17:14:26.876Z,99775.19
2023-02-04T17:16:57.509Z,99775.94
2023-02-04T17:19:27.899Z,99772.31
2023-02-04T17:22:01.016Z,99777.81
2023-02-04T17:24:36.447Z,99776.28
2023-02-04T17:27:12.480Z,99782.53
2023-02-04T17:29:42.894Z,99783.72
2023-02-04T17:32:13.243Z,99780.53
2023-02-04T17:34:45.232Z,99782.19
2023-02-04T17:37:20.476Z,99786.44
2023-02-04T17:39:50.854Z,99789.91
2023-02-04T17:42:21.755Z,99782.38
2023-02-04T17:44:52.821Z,99796.84
2023-02-04T17:47:23.453Z,99783.16
2023-02-04T17:49:53.909Z,99783.56
2023-02-04T17:52:27.048Z,99789.78
2023-02-04T17:54:57.357Z,99785.84
2023-02-04T17:57:27.862Z,99785.81
2023-02-04T17:59:58.292Z,99792.81
2023-02-04T18:02:32.178Z,99792.38
2023-02-04T18:05:11.557Z,99784.13
2023-02-04T18:07:50.858Z,99786.50
2023-02-04T18:10:25.671Z,99783.34
2023-02-04T18:12:56.664Z,99781.38
2023-02-04T18:15:32.274Z,99785.72
2023-02-04T18:18:16.983Z,99791.53
2023-02-04T18:20:47.349Z,99791.38
2023-02-04T18:23:22.318Z,99791.00
2023-02-04T18:25:52.639Z,99786.31
2023-02-04T18:28:24.748Z,99785.53
2023-02-04T18:30:57.354Z,99788.25
2023-02-04T18:33:30.020Z,99791.72
2023-02-04T18:36:04.074Z,99780.72
2023-02-04T18:38:43.411Z,99782.50
2023-02-04T18:41:36.860Z,99780.84
2023-02-04T18:44:32.616Z,99787.03
2023-02-04T18:47:05.671Z,99779.22
2023-02-04T18:49:39.791Z,99780.00
2023-02-04T18:52:21.269Z,99777.66
2023-02-04T18:54:58.311Z,99771.75
2023-02-04T18:57:38.043Z,99778.34
2023-02-04T19:00:35.024Z,99775.94
2023-02-04T19:03:23.164Z,99777.09
2023-02-04T19:05:54.472Z,99787.56
2023-02-04T19:08:27.263Z,99787.09
2023-02-04T19:11:02.156Z,99786.66
2023-02-04T19:13:42.450Z,99789.84
2023-02-04T19:16:36.500Z,99789.84
2023-02-04T19:19:31.044Z,99796.09
2023-02-04T19:22:01.460Z,99794.09
2023-02-04T19:24:32.670Z,99792.13
2023-02-04T19:27:30.859Z,99803.06
2023-02-04T19:30:04.149Z,99803.06
2023-02-04T19:32:53.521Z,99803.84
2023-02-04T19:35:26.303Z,99801.09
2023-02-04T19:38:00.621Z,99798.72
2023-02-04T19:40:35.489Z,99809.22
2023-02-04T19:43:24.481Z,99807.28
2023-02-04T19:45:55.001Z,99811.97
2023-02-04T19:48:33.510Z,99810.81
2023-02-04T19:51:21.379Z,99828.00
2023-02-04T19:53:54.118Z,99829.59
2023-02-04T19:56:35.782Z,99831.91
2023-02-04T19:59:31.580Z,99822.97
2023-02-04T20:02:23.168Z,99819.44
2023-02-04T20:04:57.268Z,99823.00
2023-02-04T20:07:29.955Z,99816.75
2023-02-04T20:10:05.657Z,99827.81
2023-02-04T20:12:36.834Z,99827.00
2023-02-04T20:15:19.757Z,99832.84
2023-02-04T20:17:51.526Z,99842.16
2023-02-04T20:20:31.236Z,99837.53
2023-02-04T20:23:03.630Z,99844.88
2023-02-04T20:25:45.292Z,99846.88
2023-02-04T20:28:43.519Z,99850.41
2023-02-04T20:31:28.883Z,99857.53
2023-02-04T20:34:01.562Z,99852.06
2023-02-04T20:36:47.415Z,99857.56
2023-02-04T20:39:43.318Z,99853.22
2023-02-04T20:42:36.194Z,99859.03
2023-02-04T20:45:31.013Z,99861.78
2023-02-04T20:48:30.311Z,99866.09
2023-02-04T20:51:04.028Z,99857.13
2023-02-04T20:53:41.769Z,99868.16
2023-02-04T20:56:29.062Z,99870.53
2023-02-04T20:59:11.071Z,99869.63
2023-02-04T21:01:44.180Z,99874.72
2023-02-04T21:04:24.444Z,99877.03
2023-02-04T21:06:58.252Z,99879.78
2023-02-04T21:09:32.802Z,99881.34
2023-02-04T21:12:04.929Z,99869.19
2023-02-04T21:14:35.737Z,99884.09
2023-02-04T21:17:06.155Z,99896.97
2023-02-04T21:19:39.287Z,99879.28
2023-02-04T21:22:09.649Z,99885.56
2023-02-04T21:24:39.967Z,99886.28
2023-02-04T21:27:10.440Z,99888.13
2023-02-04T21:29:40.730Z,99886.94
2023-02-04T21:32:11.338Z,99883.00
2023-02-04T21:34:44.352Z,99890.06
2023-02-04T21:37:14.701Z,99891.25
2023-02-04T21:39:45.058Z,99891.63
2023-02-04T21:42:15.349Z,99889.31
2023-02-04T21:44:45.784Z,99892.81
2023-02-04T21:47:17.815Z,99891.16
2023-02-04T21:49:50.992Z,99886.91
2023-02-04T21:52:21.349Z,99883.81
2023-02-04T21:54:51.693Z,99884.47
2023-02-04T21:57:22.032Z,99890.78
2023-02-04T21:59:54.580Z,99885.63
2023-02-04T22:02:25.709Z,99881.66
2023-02-04T22:04:58.707Z,99883.34
2023-02-04T22:07:29.162Z,99883.00
2023-02-04T22:09:59.508Z,99890.06
2023-02-04T22:12:32.274Z,99897.09
2023-02-04T22:15:04.275Z,99889.69
2023-02-04T22:17:34.947Z,99897.09
2023-02-04T22:20:08.985Z,99893.16
2023-02-04T22:22:39.373Z,99891.22
2023-02-04T22:25:10.649Z,99899.44
2023-02-04T22:27:40.784Z,99893.16
2023-02-04T22:30:14.229Z,99889.63
2023-02-04T22:32:44.783Z,99893.16
2023-02-04T22:35:18.462Z,99891.22
2023-02-04T22:37:48.846Z,99890.00
2023-02-04T22:40:19.212Z,99897.78
2023-02-04T22:42:49.609Z,99891.94
2023-02-04T22:45:21.452Z,99883.34
2023-02-04T22:47:51.771Z,99887.22
2023-02-04T22:50:24.799Z,99888.38
2023-02-04T22:52:55.250Z,99878.22
2023-02-04T22:55:25.668Z,99872.41
2023-02-04T22:57:55.995Z,99872.72
2023-02-04T23:00:26.523Z,99871.53
2023-02-04T23:02:57.018Z,99877.75
2023-02-04T23:05:30.059Z,99883.22
2023-02-04T23:08:00.395Z,99894.50
2023-02-04T23:10:30.701Z,99893.34
2023-02-04T23:13:00.999Z,99896.53
2023-02-04T23:15:31.595Z,99896.09
2023-02-04T23:18:02.213Z,99895.28
2023-02-04T23:20:36.315Z,99892.13
2023-02-04T23:23:07.042Z,99894.84
2023-02-04T23:25:37.906Z,99901.50
2023-02-04T23:28:08.729Z,99904.50
2023-02-04T23:30:39.350Z,99898.25
2023-02-04T23:33:10.991Z,99906.09
2023-02-04T23:35:43.983Z,99903.69
2023-02-04T23:38:14.303Z,99905.25
2023-02-04T23:40:44.790Z,99906.06
2023-02-04T23:43:15.173Z,99897.38
2023-02-04T23:45:45.976Z,99899.97
2023-02-04T23:48:16.421Z,99895.25
2023-02-04T23:50:50.353Z,99891.22
2023-02-04T23:53:21.432Z,99886.78
2023-02-04T23:55:51.827Z,99877.78
2023-02-04T23:58:22.585Z,99877.72
